sensor_id;sensor_type;location;lat;lon;timestamp;pressure;altitude;pressure_sealevel;temperature;humidity
35918;BME280;22011;59.912;30.300;2024-01-15T00:01:35;98701.97;;;-8.53;66.67
35918;BME280;22011;59.912;30.300;2024-01-15T00:04:04;98701.69;;;-8.48;66.95
35918;BME280;22011;59.912;30.300;2024-01-15T00:06:32;98701.50;;;-8.45;67.12
35918;BME280;22011;59.912;30.300;2024-01-15T00:08:59;98697.16;;;-8.45;66.63
35918;BME280;22011;59.912;30.300;2024-01-15T00:11:27;98697.34;;;-8.48;66.08
35918;BME280;22011;59.912;30.300;2024-01-15T00:13:55;98694.78;;;-8.48;66.31
35918;BME280;22011;59.912;30.300;2024-01-15T00:16:22;98697.16;;;-8.45;66.43
35918;BME280;22011;59.912;30.300;2024-01-15T00:18:50;98695.41;;;-8.44;66.56
35918;BME280;22011;59.912;30.300;2024-01-15T00:21:19;98692.63;;;-8.41;66.69
35918;BME280;22011;59.912;30.300;2024-01-15T00:23:47;98687.28;;;-8.38;66.63
35918;BME280;22011;59.912;30.300;2024-01-15T00:26:15;98687.19;;;-8.37;66.29
35918;BME280;22011;59.912;30.300;2024-01-15T00:28:42;98677.88;;;-8.39;66.20
35918;BME280;22011;59.912;30.300;2024-01-15T00:31:10;98678.16;;;-8.44;66.19
35918;BME280;22011;59.912;30.300;2024-01-15T00:33:37;98671.53;;;-8.48;66.24
35918;BME280;22011;59.912;30.300;2024-01-15T00:36:05;98664.91;;;-8.52;66.13
35918;BME280;22011;59.912;30.300;2024-01-15T00:38:35;98669.16;;;-8.51;66.45
35918;BME280;22011;59.912;30.300;2024-01-15T00:41:02;98668.22;;;-8.50;66.51
35918;BME280;22011;59.912;30.300;2024-01-15T00:43:30;98667.50;;;-8.52;66.20
35918;BME280;22011;59.912;30.300;2024-01-15T00:45:58;98664.72;;;-8.49;66.55
35918;BME280;22011;59.912;30.300;2024-01-15T00:48:25;98661.22;;;-8.48;66.79
35918;BME280;22011;59.912;30.300;2024-01-15T00:50:54;98664.31;;;-8.43;66.64
35918;BME280;22011;59.912;30.300;2024-01-15T00:53:21;98665.06;;;-8.41;66.45
35918;BME280;22011;59.912;30.300;2024-01-15T00:55:50;98662.28;;;-8.38;66.45
35918;BME280;22011;59.912;30.300;2024-01-15T00:58:18;98659.06;;;-8.41;66.42
35918;BME280;22011;59.912;30.300;2024-01-15T01:00:46;98660.81;;;-8.42;66.62
35918;BME280;22011;59.912;30.300;2024-01-15T01:03:14;98652.16;;;-8.41;67.14
35918;BME280;22011;59.912;30.300;2024-01-15T01:05:42;98652.16;;;-8.41;66.94
35918;BME280;22011;59.912;30.300;2024-01-15T01:08:10;98650.38;;;-8.40;66.84
35918;BME280;22011;59.912;30.300;2024-01-15T01:10:38;98640.78;;;-8.38;67.15
35918;BME280;22011;59.912;30.300;2024-01-15T01:13:07;98637.28;;;-8.37;67.35
35918;BME280;22011;59.912;30.300;2024-01-15T01:15:34;98639.75;;;-8.36;67.43
35918;BME280;22011;59.912;30.300;2024-01-15T01:18:02;98631.91;;;-8.34;67.38
35918;BME280;22011;59.912;30.300;2024-01-15T01:20:36;98634.50;;;-8.34;67.18
35918;BME280;22011;59.912;30.300;2024-01-15T01:23:03;98633.31;;;-8.30;67.40
35918;BME280;22011;59.912;30.300;2024-01-15T01:25:31;98625.38;;;-8.27;67.60
35918;BME280;22011;59.912;30.300;2024-01-15T01:27:59;98630.44;;;-8.26;67.31
35918;BME280;22011;59.912;30.300;2024-01-15T01:30:28;98627.53;;;-8.21;67.56
35918;BME280;22011;59.912;30.300;2024-01-15T01:32:58;98620.53;;;-8.19;67.22
35918;BME280;22011;59.912;30.300;2024-01-15T01:35:26;98623.31;;;-8.22;66.82
35918;BME280;22011;59.912;30.300;2024-01-15T01:37:53;98617.22;;;-8.21;67.13
35918;BME280;22011;59.912;30.300;2024-01-15T01:40:21;98615.56;;;-8.22;66.93
35918;BME280;22011;59.912;30.300;2024-01-15T01:42:49;98612.25;;;-8.24;67.31
35918;BME280;22011;59.912;30.300;2024-01-15T01:45:16;98613.91;;;-8.23;67.48
35918;BME280;22011;59.912;30.300;2024-01-15T01:47:46;98609.25;;;-8.18;67.70
35918;BME280;22011;59.912;30.300;2024-01-15T01:50:14;98615.25;;;-8.17;67.75
35918;BME280;22011;59.912;30.300;2024-01-15T01:52:42;98609.16;;;-8.16;67.73
35918;BME280;22011;59.912;30.300;2024-01-15T01:55:10;98609.06;;;-8.15;67.59
35918;BME280;22011;59.912;30.300;2024-01-15T01:57:39;98614.03;;;-8.12;67.65
35918;BME280;22011;59.912;30.300;2024-01-15T02:00:10;98608.88;;;-8.12;67.52
35918;BME280;22011;59.912;30.300;2024-01-15T02:02:40;98613.69;;;-8.20;67.29
35918;BME280;22011;59.912;30.300;2024-01-15T02:05:09;98601.81;;;-8.23;67.00
35918;BME280;22011;59.912;30.300;2024-01-15T02:07:37;98608.84;;;-8.25;66.95
35918;BME280;22011;59.912;30.300;2024-01-15T02:10:05;98609.03;;;-8.28;67.11
35918;BME280;22011;59.912;30.300;2024-01-15T02:12:33;98606.44;;;-8.28;67.18
35918;BME280;22011;59.912;30.300;2024-01-15T02:15:01;98608.09;;;-8.27;67.34
35918;BME280;22011;59.912;30.300;2024-01-15T02:17:29;98608.75;;;-8.23;67.64
35918;BME280;22011;59.912;30.300;2024-01-15T02:19:56;98606.78;;;-8.19;67.82
35918;BME280;22011;59.912;30.300;2024-01-15T02:22:25;98602.34;;;-8.17;67.44
35918;BME280;22011;59.912;30.300;2024-01-15T02:24:54;98598.81;;;-8.16;67.26
35918;BME280;22011;59.912;30.300;2024-01-15T02:27:24;98602.97;;;-8.14;67.75
35918;BME280;22011;59.912;30.300;2024-01-15T02:29:55;98594.28;;;-8.13;67.80
35918;BME280;22011;59.912;30.300;2024-01-15T02:32:23;98587.47;;;-8.14;67.58
35918;BME280;22011;59.912;30.300;2024-01-15T02:34:51;98593.66;;;-8.16;67.50
35918;BME280;22011;59.912;30.300;2024-01-15T02:37:18;98588.69;;;-8.19;67.34
35918;BME280;22011;59.912;30.300;2024-01-15T02:39:47;98588.06;;;-8.23;67.10
35918;BME280;22011;59.912;30.300;2024-01-15T02:42:16;98589.81;;;-8.24;67.28
35918;BME280;22011;59.912;30.300;2024-01-15T02:44:43;98587.44;;;-8.27;67.32
35918;BME280;22011;59.912;30.300;2024-01-15T02:47:11;98586.25;;;-8.34;67.28
35918;BME280;22011;59.912;30.300;2024-01-15T02:49:38;98587.91;;;-8.33;67.74
35918;BME280;22011;59.912;30.300;2024-01-15T02:52:06;98583.84;;;-8.24;68.15
35918;BME280;22011;59.912;30.300;2024-01-15T02:54:34;98581.16;;;-8.23;68.02
35918;BME280;22011;59.912;30.300;2024-01-15T02:57:01;98582.69;;;-8.20;68.07
35918;BME280;22011;59.912;30.300;2024-01-15T02:59:31;98583.31;;;-8.16;67.97
35918;BME280;22011;59.912;30.300;2024-01-15T03:01:58;98580.66;;;-8.15;68.13
35918;BME280;22011;59.912;30.300;2024-01-15T03:04:26;98575.16;;;-8.10;68.42
35918;BME280;22011;59.912;30.300;2024-01-15T03:06:53;98572.28;;;-8.06;68.26
35918;BME280;22011;59.912;30.300;2024-01-15T03:09:21;98574.97;;;-8.07;68.07
35918;BME280;22011;59.912;30.300;2024-01-15T03:11:49;98561.31;;;-8.09;67.79
35918;BME280;22011;59.912;30.300;2024-01-15T03:14:16;98566.09;;;-8.03;68.26
35918;BME280;22011;59.912;30.300;2024-01-15T03:16:45;98563.28;;;-8.00;68.09
35918;BME280;22011;59.912;30.300;2024-01-15T03:19:13;98562.78;;;-8.05;67.77
35918;BME280;22011;59.912;30.300;2024-01-15T03:21:40;98558.75;;;-8.09;67.65
35918;BME280;22011;59.912;30.300;2024-01-15T03:24:08;98553.78;;;-8.12;67.67
35918;BME280;22011;59.912;30.300;2024-01-15T03:26:36;98564.22;;;-8.14;67.53
35918;BME280;22011;59.912;30.300;2024-01-15T03:29:03;98566.91;;;-8.15;67.71
35918;BME280;22011;59.912;30.300;2024-01-15T03:31:31;98553.25;;;-8.17;67.83
35918;BME280;22011;59.912;30.300;2024-01-15T03:34:00;98555.63;;;-8.14;67.88
35918;BME280;22011;59.912;30.300;2024-01-15T03:36:28;98553.97;;;-8.15;67.98
35918;BME280;22011;59.912;30.300;2024-01-15T03:38:55;98548.00;;;-8.16;68.01
35918;BME280;22011;59.912;30.300;2024-01-15T03:41:23;98552.84;;;-8.11;68.34
35918;BME280;22011;59.912;30.300;2024-01-15T03:43:51;98550.78;;;-8.06;68.19
35918;BME280;22011;59.912;30.300;2024-01-15T03:46:18;98545.41;;;-8.03;68.10
35918;BME280;22011;59.912;30.300;2024-01-15T03:48:46;98543.66;;;-8.03;67.99
35918;BME280;22011;59.912;30.300;2024-01-15T03:51:17;98546.97;;;-8.01;68.06
35918;BME280;22011;59.912;30.300;2024-01-15T03:53:45;98545.50;;;-8.05;67.89
35918;BME280;22011;59.912;30.300;2024-01-15T03:56:12;98537.88;;;-8.06;67.73
35918;BME280;22011;59.912;30.300;2024-01-15T03:58:40;98536.22;;;-8.07;67.84
35918;BME280;22011;59.912;30.300;2024-01-15T04:01:08;98530.53;;;-8.12;67.46
35918;BME280;22011;59.912;30.300;2024-01-15T04:03:37;98531.44;;;-8.13;67.54
35918;BME280;22011;59.912;30.300;2024-01-15T04:06:05;98526.19;;;-8.12;67.65
35918;BME280;22011;59.912;30.300;2024-01-15T04:08:34;98523.50;;;-8.10;67.94
35918;BME280;22011;59.912;30.300;2024-01-15T04:11:02;98525.25;;;-8.11;67.56
35918;BME280;22011;59.912;30.300;2024-01-15T04:13:32;98521.75;;;-8.10;67.76
35918;BME280;22011;59.912;30.300;2024-01-15T04:16:00;98526.28;;;-8.13;67.69
35918;BME280;22011;59.912;30.300;2024-01-15T04:18:28;98528.78;;;-8.12;67.87
35918;BME280;22011;59.912;30.300;2024-01-15T04:20:55;98520.72;;;-8.07;67.82
35918;BME280;22011;59.912;30.300;2024-01-15T04:23:23;98522.97;;;-8.03;67.88
35918;BME280;22011;59.912;30.300;2024-01-15T04:25:52;98516.25;;;-8.05;67.59
35918;BME280;22011;59.912;30.300;2024-01-15T04:28:19;98508.63;;;-8.07;67.47
35918;BME280;22011;59.912;30.300;2024-01-15T04:30:47;98514.59;;;-8.06;67.45
35918;BME280;22011;59.912;30.300;2024-01-15T04:33:15;98520.50;;;-8.04;67.50
35918;BME280;22011;59.912;30.300;2024-01-15T04:35:42;98509.34;;;-8.05;67.50
35918;BME280;22011;59.912;30.300;2024-01-15T04:38:10;98517.91;;;-8.04;67.44
35918;BME280;22011;59.912;30.300;2024-01-15T04:40:37;98515.34;;;-8.04;67.60
35918;BME280;22011;59.912;30.300;2024-01-15T04:43:06;98507.88;;;-7.96;67.72
35918;BME280;22011;59.912;30.300;2024-01-15T04:45:34;98508.19;;;-7.88;67.70
35918;BME280;22011;59.912;30.300;2024-01-15T04:48:02;98498.66;;;-7.75;67.57
35918;BME280;22011;59.912;30.300;2024-01-15T04:50:29;98504.31;;;-7.57;66.79
35918;BME280;22011;59.912;30.300;2024-01-15T04:52:57;98492.78;;;-7.40;66.28
35918;BME280;22011;59.912;30.300;2024-01-15T04:55:25;98500.28;;;-7.61;66.20
35918;BME280;22011;59.912;30.300;2024-01-15T04:57:52;98499.69;;;-7.65;66.31
35918;BME280;22011;59.912;30.300;2024-01-15T05:00:21;98496.88;;;-7.62;66.35
35918;BME280;22011;59.912;30.300;2024-01-15T05:02:49;98498.66;;;-7.62;66.42
35918;BME280;22011;59.912;30.300;2024-01-15T05:05:16;98500.19;;;-7.60;66.58
35918;BME280;22011;59.912;30.300;2024-01-15T05:07:44;98492.25;;;-7.33;65.99
35918;BME280;22011;59.912;30.300;2024-01-15T05:10:12;98495.09;;;-7.48;66.22
35918;BME280;22011;59.912;30.300;2024-01-15T05:12:39;98492.72;;;-7.51;66.31
35918;BME280;22011;59.912;30.300;2024-01-15T05:15:07;98489.22;;;-7.50;66.16
35918;BME280;22011;59.912;30.300;2024-01-15T05:17:37;98497.91;;;-7.51;66.14
35918;BME280;22011;59.912;30.300;2024-01-15T05:20:05;98493.94;;;-7.44;65.96
35918;BME280;22011;59.912;30.300;2024-01-15T05:22:33;98490.44;;;-7.43;66.03
35918;BME280;22011;59.912;30.300;2024-01-15T05:25:01;98492.41;;;-7.23;65.67
35918;BME280;22011;59.912;30.300;2024-01-15T05:27:28;98494.44;;;-7.39;65.74
35918;BME280;22011;59.912;30.300;2024-01-15T05:29:56;98485.13;;;-7.18;65.22
35918;BME280;22011;59.912;30.300;2024-01-15T05:32:24;98479.53;;;-7.12;64.98
35918;BME280;22011;59.912;30.300;2024-01-15T05:34:53;98480.72;;;-7.05;65.02
35918;BME280;22011;59.912;30.300;2024-01-15T05:37:20;98481.13;;;-7.22;65.27
35918;BME280;22011;59.912;30.300;2024-01-15T05:39:48;98477.53;;;-7.08;65.02
35918;BME280;22011;59.912;30.300;2024-01-15T05:42:15;98482.38;;;-7.04;64.80
35918;BME280;22011;59.912;30.300;2024-01-15T05:44:43;98484.63;;;-6.99;64.72
35918;BME280;22011;59.912;30.300;2024-01-15T05:47:11;98485.47;;;-6.99;64.75
35918;BME280;22011;59.912;30.300;2024-01-15T05:49:38;98492.53;;;-7.01;64.63
35918;BME280;22011;59.912;30.300;2024-01-15T05:52:07;98493.56;;;-7.03;64.82
35918;BME280;22011;59.912;30.300;2024-01-15T05:54:35;98490.66;;;-6.99;64.83
35918;BME280;22011;59.912;30.300;2024-01-15T05:57:03;98488.44;;;-7.16;65.12
35918;BME280;22011;59.912;30.300;2024-01-15T05:59:31;98496.22;;;-7.16;65.22
35918;BME280;22011;59.912;30.300;2024-01-15T06:02:00;98486.13;;;-7.08;65.19
35918;BME280;22011;59.912;30.300;2024-01-15T06:04:28;98503.25;;;-7.18;65.14
35918;BME280;22011;59.912;30.300;2024-01-15T06:06:55;98499.22;;;-7.22;65.35
35918;BME280;22011;59.912;30.300;2024-01-15T06:09:24;98485.69;;;-7.02;65.28
35918;BME280;22011;59.912;30.300;2024-01-15T06:11:52;98486.75;;;-7.04;65.00
35918;BME280;22011;59.912;30.300;2024-01-15T06:14:19;98486.22;;;-6.85;64.67
35918;BME280;22011;59.912;30.300;2024-01-15T06:16:47;98485.56;;;-6.76;64.27
35918;BME280;22011;59.912;30.300;2024-01-15T06:19:15;98485.44;;;-6.75;63.92
35918;BME280;22011;59.912;30.300;2024-01-15T06:21:43;98484.03;;;-7.03;64.22
35918;BME280;22011;59.912;30.300;2024-01-15T06:24:10;98482.22;;;-7.13;64.81
35918;BME280;22011;59.912;30.300;2024-01-15T06:26:41;98488.00;;;-7.10;65.13
35918;BME280;22011;59.912;30.300;2024-01-15T06:29:08;98487.06;;;-7.09;64.93
35918;BME280;22011;59.912;30.300;2024-01-15T06:31:36;98488.72;;;-7.08;65.06
35918;BME280;22011;59.912;30.300;2024-01-15T06:34:03;98497.69;;;-7.01;65.14
35918;BME280;22011;59.912;30.300;2024-01-15T06:36:31;98493.06;;;-6.84;64.59
35918;BME280;22011;59.912;30.300;2024-01-15T06:38:59;98495.09;;;-6.77;64.13
35918;BME280;22011;59.912;30.300;2024-01-15T06:41:26;98496.97;;;-7.03;64.38
35918;BME280;22011;59.912;30.300;2024-01-15T06:43:55;98498.63;;;-7.02;64.90
35918;BME280;22011;59.912;30.300;2024-01-15T06:46:23;98494.63;;;-7.06;65.07
35918;BME280;22011;59.912;30.300;2024-01-15T06:48:50;98492.84;;;-7.05;65.14
35918;BME280;22011;59.912;30.300;2024-01-15T06:51:18;98493.47;;;-7.02;65.14
35918;BME280;22011;59.912;30.300;2024-01-15T06:53:45;98492.69;;;-6.91;64.65
35918;BME280;22011;59.912;30.300;2024-01-15T06:56:13;98493.13;;;-6.97;65.23
35918;BME280;22011;59.912;30.300;2024-01-15T06:58:41;98495.59;;;-6.96;65.40
35918;BME280;22011;59.912;30.300;2024-01-15T07:01:10;98492.69;;;-6.91;65.96
35918;BME280;22011;59.912;30.300;2024-01-15T07:03:38;98489.03;;;-6.88;66.30
35918;BME280;22011;59.912;30.300;2024-01-15T07:06:06;98485.75;;;-6.90;66.25
35918;BME280;22011;59.912;30.300;2024-01-15T07:08:34;98485.03;;;-6.93;66.17
35918;BME280;22011;59.912;30.300;2024-01-15T07:11:03;98479.63;;;-6.89;65.99
35918;BME280;22011;59.912;30.300;2024-01-15T07:13:31;98476.81;;;-6.86;65.58
35918;BME280;22011;59.912;30.300;2024-01-15T07:15:59;98481.88;;;-6.85;65.34
35918;BME280;22011;59.912;30.300;2024-01-15T07:18:28;98472.94;;;-6.81;65.07
35918;BME280;22011;59.912;30.300;2024-01-15T07:20:56;98478.56;;;-6.87;64.87
35918;BME280;22011;59.912;30.300;2024-01-15T07:23:23;98477.97;;;-6.90;65.19
35918;BME280;22011;59.912;30.300;2024-01-15T07:25:51;98475.50;;;-6.92;65.79
35918;BME280;22011;59.912;30.300;2024-01-15T07:28:20;98480.78;;;-6.94;65.96
35918;BME280;22011;59.912;30.300;2024-01-15T07:30:47;98477.25;;;-6.93;66.13
35918;BME280;22011;59.912;30.300;2024-01-15T07:33:15;98483.16;;;-6.90;65.99
35918;BME280;22011;59.912;30.300;2024-01-15T07:35:44;98481.16;;;-6.87;65.59
35918;BME280;22011;59.912;30.300;2024-01-15T07:38:11;98478.91;;;-6.92;65.38
35918;BME280;22011;59.912;30.300;2024-01-15T07:40:39;98491.03;;;-6.92;65.26
35918;BME280;22011;59.912;30.300;2024-01-15T07:43:07;98475.16;;;-6.87;65.33
35918;BME280;22011;59.912;30.300;2024-01-15T07:45:34;98480.44;;;-6.89;65.10
35918;BME280;22011;59.912;30.300;2024-01-15T07:48:02;98481.28;;;-6.88;64.90
35918;BME280;22011;59.912;30.300;2024-01-15T07:50:30;98479.41;;;-6.86;64.83
35918;BME280;22011;59.912;30.300;2024-01-15T07:52:59;98478.34;;;-6.84;64.95
35918;BME280;22011;59.912;30.300;2024-01-15T07:55:27;98480.84;;;-6.82;64.88
35918;BME280;22011;59.912;30.300;2024-01-15T07:57:54;98480.72;;;-6.81;64.96
35918;BME280;22011;59.912;30.300;2024-01-15T08:00:25;98480.06;;;-6.72;65.35
35918;BME280;22011;59.912;30.300;2024-01-15T08:02:52;98476.63;;;-6.72;65.75
35918;BME280;22011;59.912;30.300;2024-01-15T08:05:20;98470.63;;;-6.73;65.75
35918;BME280;22011;59.912;30.300;2024-01-15T08:07:48;98469.34;;;-6.67;65.82
35918;BME280;22011;59.912;30.300;2024-01-15T08:10:17;98471.00;;;-6.66;65.44
35918;BME280;22011;59.912;30.300;2024-01-15T08:12:45;98471.00;;;-6.66;65.38
35918;BME280;22011;59.912;30.300;2024-01-15T08:15:12;98471.59;;;-6.63;65.37
35918;BME280;22011;59.912;30.300;2024-01-15T08:17:40;98466.41;;;-6.63;65.03
35918;BME280;22011;59.912;30.300;2024-01-15T08:20:08;98464.66;;;-6.62;65.08
35918;BME280;22011;59.912;30.300;2024-01-15T08:22:36;98458.53;;;-6.61;65.36
35918;BME280;22011;59.912;30.300;2024-01-15T08:25:05;98461.00;;;-6.60;65.54
35918;BME280;22011;59.912;30.300;2024-01-15T08:27:34;98465.50;;;-6.50;65.30
35918;BME280;22011;59.912;30.300;2024-01-15T08:30:01;98470.59;;;-6.49;64.98
35918;BME280;22011;59.912;30.300;2024-01-15T08:32:30;98466.13;;;-6.47;64.56
35918;BME280;22011;59.912;30.300;2024-01-15T08:34:58;98464.47;;;-6.48;64.43
35918;BME280;22011;59.912;30.300;2024-01-15T08:37:25;98459.06;;;-6.45;64.43
35918;BME280;22011;59.912;30.300;2024-01-15T08:39:53;98465.88;;;-6.44;64.29
35918;BME280;22011;59.912;30.300;2024-01-15T08:42:21;98453.75;;;-6.43;64.76
35918;BME280;22011;59.912;30.300;2024-01-15T08:44:50;98462.00;;;-6.38;64.86
35918;BME280;22011;59.912;30.300;2024-01-15T08:47:18;98460.84;;;-6.34;64.69
35918;BME280;22011;59.912;30.300;2024-01-15T08:49:45;98467.56;;;-6.32;64.67
35918;BME280;22011;59.912;30.300;2024-01-15T08:52:13;98459.78;;;-6.32;64.50
35918;BME280;22011;59.912;30.300;2024-01-15T08:54:41;98455.44;;;-6.31;64.40
35918;BME280;22011;59.912;30.300;2024-01-15T08:57:08;98457.91;;;-6.30;64.34
35918;BME280;22011;59.912;30.300;2024-01-15T08:59:37;98448.13;;;-6.26;64.55
35918;BME280;22011;59.912;30.300;2024-01-15T09:02:06;98443.78;;;-6.25;64.54
35918;BME280;22011;59.912;30.300;2024-01-15T09:04:34;98448.13;;;-6.26;64.50
35918;BME280;22011;59.912;30.300;2024-01-15T09:07:02;98447.31;;;-6.27;64.30
35918;BME280;22011;59.912;30.300;2024-01-15T09:09:30;98448.84;;;-6.24;64.32
35918;BME280;22011;59.912;30.300;2024-01-15T09:11:57;98442.69;;;-6.23;64.04
35918;BME280;22011;59.912;30.300;2024-01-15T09:14:25;98439.16;;;-6.22;63.64
35918;BME280;22011;59.912;30.300;2024-01-15T09:16:53;98449.50;;;-6.22;63.75
35918;BME280;22011;59.912;30.300;2024-01-15T09:19:22;98436.44;;;-6.20;64.45
35918;BME280;22011;59.912;30.300;2024-01-15T09:21:49;98442.44;;;-6.20;64.74
35918;BME280;22011;59.912;30.300;2024-01-15T09:24:17;98439.41;;;-6.25;65.01
35918;BME280;22011;59.912;30.300;2024-01-15T09:26:45;98440.47;;;-6.28;65.25
35918;BME280;22011;59.912;30.300;2024-01-15T09:29:12;98434.09;;;-6.23;65.18
35918;BME280;22011;59.912;30.300;2024-01-15T09:31:42;98441.16;;;-6.14;65.11
35918;BME280;22011;59.912;30.300;2024-01-15T09:34:09;98434.69;;;-6.09;65.01
35918;BME280;22011;59.912;30.300;2024-01-15T09:36:40;98435.63;;;-5.99;64.56
35918;BME280;22011;59.912;30.300;2024-01-15T09:39:08;98436.91;;;-6.04;64.48
35918;BME280;22011;59.912;30.300;2024-01-15T09:41:37;98439.63;;;-6.06;64.83
35918;BME280;22011;59.912;30.300;2024-01-15T09:44:05;98439.75;;;-6.07;64.92
35918;BME280;22011;59.912;30.300;2024-01-15T09:46:34;98446.59;;;-6.06;65.10
35918;BME280;22011;59.912;30.300;2024-01-15T09:49:02;98445.28;;;-6.12;64.89
35918;BME280;22011;59.912;30.300;2024-01-15T09:51:31;98445.16;;;-6.10;64.86
35918;BME280;22011;59.912;30.300;2024-01-15T09:54:01;98429.38;;;-6.07;64.77
35918;BME280;22011;59.912;30.300;2024-01-15T09:56:28;98439.88;;;-6.09;64.70
35918;BME280;22011;59.912;30.300;2024-01-15T09:58:56;98438.22;;;-6.10;64.65
35918;BME280;22011;59.912;30.300;2024-01-15T10:01:24;98431.03;;;-6.06;64.84
35918;BME280;22011;59.912;30.300;2024-01-15T10:03:52;98432.91;;;-6.08;65.09
35918;BME280;22011;59.912;30.300;2024-01-15T10:06:21;98435.50;;;-6.08;65.38
35918;BME280;22011;59.912;30.300;2024-01-15T10:08:51;98438.56;;;-6.03;65.35
35918;BME280;22011;59.912;30.300;2024-01-15T10:11:20;98427.97;;;-6.00;65.66
35918;BME280;22011;59.912;30.300;2024-01-15T10:13:47;98431.63;;;-6.03;65.22
35918;BME280;22011;59.912;30.300;2024-01-15T10:16:19;98431.72;;;-6.15;64.75
35918;BME280;22011;59.912;30.300;2024-01-15T10:18:48;98429.03;;;-6.25;65.20
35918;BME280;22011;59.912;30.300;2024-01-15T10:21:15;98435.72;;;-6.22;65.40
35918;BME280;22011;59.912;30.300;2024-01-15T10:23:43;98428.56;;;-6.19;65.61
35918;BME280;22011;59.912;30.300;2024-01-15T10:26:11;98425.84;;;-6.17;65.92
35918;BME280;22011;59.912;30.300;2024-01-15T10:28:40;98428.19;;;-6.14;65.90
35918;BME280;22011;59.912;30.300;2024-01-15T10:31:09;98433.03;;;-6.10;65.79
35918;BME280;22011;59.912;30.300;2024-01-15T10:33:37;98432.09;;;-6.09;65.48
35918;BME280;22011;59.912;30.300;2024-01-15T10:36:09;98423.00;;;-6.03;65.75
35918;BME280;22011;59.912;30.300;2024-01-15T10:38:37;98425.03;;;-6.07;65.62
35918;BME280;22011;59.912;30.300;2024-01-15T10:41:05;98419.47;;;-6.02;65.83
35918;BME280;22011;59.912;30.300;2024-01-15T10:43:32;98420.53;;;-6.05;65.86
35918;BME280;22011;59.912;30.300;2024-01-15T10:46:02;98408.06;;;-6.00;65.87
35918;BME280;22011;59.912;30.300;2024-01-15T10:48:30;98410.84;;;-5.80;66.54
35918;BME280;22011;59.912;30.300;2024-01-15T10:50:57;98417.34;;;-5.97;65.49
35918;BME280;22011;59.912;30.300;2024-01-15T10:53:25;98410.41;;;-5.97;65.12
35918;BME280;22011;59.912;30.300;2024-01-15T10:55:54;98408.16;;;-5.90;64.94
35918;BME280;22011;59.912;30.300;2024-01-15T10:58:22;98408.59;;;-5.85;64.84
35918;BME280;22011;59.912;30.300;2024-01-15T11:00:50;98410.94;;;-5.82;64.78
35918;BME280;22011;59.912;30.300;2024-01-15T11:03:19;98417.53;;;-5.78;64.65
35918;BME280;22011;59.912;30.300;2024-01-15T11:05:47;98415.66;;;-5.76;64.49
35918;BME280;22011;59.912;30.300;2024-01-15T11:08:17;98416.13;;;-5.71;64.70
35918;BME280;22011;59.912;30.300;2024-01-15T11:10:45;98415.91;;;-5.79;64.36
35918;BME280;22011;59.912;30.300;2024-01-15T11:13:15;98416.63;;;-5.88;64.20
35918;BME280;22011;59.912;30.300;2024-01-15T11:15:59;98410.94;;;-5.82;65.02
35918;BME280;22011;59.912;30.300;2024-01-15T11:18:30;98409.22;;;-5.93;64.76
35918;BME280;22011;59.912;30.300;2024-01-15T11:21:20;98412.00;;;-5.84;65.45
35918;BME280;22011;59.912;30.300;2024-01-15T11:23:48;98405.09;;;-5.95;65.01
35918;BME280;22011;59.912;30.300;2024-01-15T11:26:34;98406.72;;;-5.83;65.43
35918;BME280;22011;59.912;30.300;2024-01-15T11:29:03;98406.50;;;-5.91;64.92
35918;BME280;22011;59.912;30.300;2024-01-15T11:31:59;98402.22;;;-5.81;65.07
35918;BME280;22011;59.912;30.300;2024-01-15T11:34:51;98394.09;;;-5.87;65.03
35918;BME280;22011;59.912;30.300;2024-01-15T11:37:19;98402.88;;;-6.00;65.22
35918;BME280;22011;59.912;30.300;2024-01-15T11:39:47;98399.56;;;-6.02;65.79
35918;BME280;22011;59.912;30.300;2024-01-15T11:42:14;98392.13;;;-5.95;65.80
35918;BME280;22011;59.912;30.300;2024-01-15T11:44:43;98398.22;;;-5.85;65.59
35918;BME280;22011;59.912;30.300;2024-01-15T11:47:12;98394.56;;;-5.82;65.71
35918;BME280;22011;59.912;30.300;2024-01-15T11:50:01;98395.38;;;-5.71;66.18
35918;BME280;22011;59.912;30.300;2024-01-15T11:52:34;98385.38;;;-5.75;65.49
35918;BME280;22011;59.912;30.300;2024-01-15T11:55:16;98391.84;;;-5.70;65.33
35918;BME280;22011;59.912;30.300;2024-01-15T11:57:47;98387.00;;;-5.74;65.01
35918;BME280;22011;59.912;30.300;2024-01-15T12:00:18;98385.13;;;-5.72;64.84
35918;BME280;22011;59.912;30.300;2024-01-15T12:02:46;98388.66;;;-5.73;64.56
35918;BME280;22011;59.912;30.300;2024-01-15T12:05:17;98382.41;;;-5.71;65.02
35918;BME280;22011;59.912;30.300;2024-01-15T12:07:46;98391.38;;;-5.75;65.05
35918;BME280;22011;59.912;30.300;2024-01-15T12:10:17;98379.47;;;-5.77;65.24
35918;BME280;22011;59.912;30.300;2024-01-15T12:12:57;98380.50;;;-5.69;65.57
35918;BME280;22011;59.912;30.300;2024-01-15T12:15:27;98380.50;;;-5.69;65.04
35918;BME280;22011;59.912;30.300;2024-01-15T12:17:56;98377.91;;;-5.69;64.62
35918;BME280;22011;59.912;30.300;2024-01-15T12:20:26;98369.91;;;-5.66;64.84
35918;BME280;22011;59.912;30.300;2024-01-15T12:22:55;98373.31;;;-5.65;64.63
35918;BME280;22011;59.912;30.300;2024-01-15T12:25:23;98368.25;;;-5.67;64.49
35918;BME280;22011;59.912;30.300;2024-01-15T12:27:51;98376.41;;;-5.71;64.32
35918;BME280;22011;59.912;30.300;2024-01-15T12:30:19;98378.28;;;-5.73;64.71
35918;BME280;22011;59.912;30.300;2024-01-15T12:32:47;98374.88;;;-5.74;64.29
35918;BME280;22011;59.912;30.300;2024-01-15T12:35:15;98363.78;;;-5.76;64.56
35918;BME280;22011;59.912;30.300;2024-01-15T12:37:45;98363.09;;;-5.78;64.78
35918;BME280;22011;59.912;30.300;2024-01-15T12:40:13;98360.84;;;-5.82;64.60
35918;BME280;22011;59.912;30.300;2024-01-15T12:42:42;98350.84;;;-5.87;64.56
35918;BME280;22011;59.912;30.300;2024-01-15T12:45:11;98353.44;;;-5.87;64.93
35918;BME280;22011;59.912;30.300;2024-01-15T12:47:39;98352.78;;;-5.89;64.85
35918;BME280;22011;59.912;30.300;2024-01-15T12:50:08;98356.53;;;-5.93;65.26
35918;BME280;22011;59.912;30.300;2024-01-15T12:52:37;98357.59;;;-5.96;65.48
35918;BME280;22011;59.912;30.300;2024-01-15T12:55:07;98357.50;;;-5.94;65.23
35918;BME280;22011;59.912;30.300;2024-01-15T12:57:35;98351.00;;;-6.00;65.67